sensor_id;sensor_type;location;lat;lon;timestamp;pressure;altitude;pressure_sealevel;temperature;humidity
79123;BME280;68526;44.600;26.032;2023-07-13T00:00:10;100354.13;;;23.28;78.25
79123;BME280;68526;44.600;26.032;2023-07-13T00:00:26;100353.31;;;23.27;77.89
79123;BME280;68526;44.600;26.032;2023-07-13T00:00:42;100356.13;;;23.27;78.28
79123;BME280;68526;44.600;26.032;2023-07-13T00:00:59;100354.13;;;23.28;78.05
79123;BME280;68526;44.600;26.032;2023-07-13T00:01:16;100346.53;;;23.28;78.21
79123;BME280;68526;44.600;26.032;2023-07-13T00:01:32;100350.53;;;23.24;78.18
79123;BME280;68526;44.600;26.032;2023-07-13T00:01:48;100352.16;;;23.25;78.05
79123;BME280;68526;44.600;26.032;2023-07-13T00:02:05;100352.53;;;23.27;77.80
79123;BME280;68526;44.600;26.032;2023-07-13T00:02:23;100353.75;;;23.26;78.07
79123;BME280;68526;44.600;26.032;2023-07-13T00:02:39;100351.31;;;23.24;78.08
79123;BME280;68526;44.600;26.032;2023-07-13T00:02:55;100358.53;;;23.25;77.96
79123;BME280;68526;44.600;26.032;2023-07-13T00:03:11;100357.75;;;23.25;78.19
79123;BME280;68526;44.600;26.032;2023-07-13T00:03:28;100350.53;;;23.24;78.07
79123;BME280;68526;44.600;26.032;2023-07-13T00:03:50;100351.31;;;23.24;78.21
79123;BME280;68526;44.600;26.032;2023-07-13T00:04:07;100353.31;;;23.24;78.06
79123;BME280;68526;44.600;26.032;2023-07-13T00:04:24;100352.94;;;23.22;78.33
79123;BME280;68526;44.600;26.032;2023-07-13T00:04:40;100351.75;;;23.23;78.49
79123;BME280;68526;44.600;26.032;2023-07-13T00:04:56;100349.34;;;23.21;78.47
79123;BME280;68526;44.600;26.032;2023-07-13T00:05:14;100349.34;;;23.21;78.28
79123;BME280;68526;44.600;26.032;2023-07-13T00:05:30;100350.16;;;23.22;77.86
79123;BME280;68526;44.600;26.032;2023-07-13T00:05:57;100349.75;;;23.23;78.11
79123;BME280;68526;44.600;26.032;2023-07-13T00:06:13;100351.75;;;23.23;78.24
79123;BME280;68526;44.600;26.032;2023-07-13T00:06:29;100348.94;;;23.23;78.20
79123;BME280;68526;44.600;26.032;2023-07-13T00:06:48;100352.16;;;23.21;78.31
79123;BME280;68526;44.600;26.032;2023-07-13T00:07:04;100352.94;;;23.22;78.41
79123;BME280;68526;44.600;26.032;2023-07-13T00:07:20;100352.94;;;23.22;78.13
79123;BME280;68526;44.600;26.032;2023-07-13T00:07:37;100352.94;;;23.22;78.04
79123;BME280;68526;44.600;26.032;2023-07-13T00:07:53;100350.16;;;23.22;78.11
79123;BME280;68526;44.600;26.032;2023-07-13T00:08:09;100358.53;;;23.22;78.07
79123;BME280;68526;44.600;26.032;2023-07-13T00:08:29;100351.34;;;23.21;78.18
79123;BME280;68526;44.600;26.032;2023-07-13T00:08:45;100351.34;;;23.21;78.29
79123;BME280;68526;44.600;26.032;2023-07-13T00:09:02;100351.78;;;23.19;78.52
79123;BME280;68526;44.600;26.032;2023-07-13T00:09:20;100350.97;;;23.18;78.68
79123;BME280;68526;44.600;26.032;2023-07-13T00:09:37;100357.38;;;23.19;78.27
79123;BME280;68526;44.600;26.032;2023-07-13T00:09:52;100348.97;;;23.19;78.38
79123;BME280;68526;44.600;26.032;2023-07-13T00:10:08;100356.16;;;23.20;78.12
79123;BME280;68526;44.600;26.032;2023-07-13T00:10:25;100358.16;;;23.19;78.06
79123;BME280;68526;44.600;26.032;2023-07-13T00:10:41;100355.38;;;23.19;78.32
79123;BME280;68526;44.600;26.032;2023-07-13T00:10:58;100352.94;;;23.18;78.45
79123;BME280;68526;44.600;26.032;2023-07-13T00:11:14;100360.53;;;23.17;78.49
79123;BME280;68526;44.600;26.032;2023-07-13T00:11:30;100358.94;;;23.16;78.74
79123;BME280;68526;44.600;26.032;2023-07-13T00:11:50;100358.94;;;23.16;78.57
79123;BME280;68526;44.600;26.032;2023-07-13T00:12:23;100359.75;;;23.17;78.56
79123;BME280;68526;44.600;26.032;2023-07-13T00:12:39;100358.94;;;23.16;78.36
79123;BME280;68526;44.600;26.032;2023-07-13T00:12:55;100364.53;;;23.16;78.53
79123;BME280;68526;44.600;26.032;2023-07-13T00:13:12;100366.13;;;23.17;78.70
79123;BME280;68526;44.600;26.032;2023-07-13T00:13:27;100355.38;;;23.16;78.86
79123;BME280;68526;44.600;26.032;2023-07-13T00:13:44;100360.94;;;23.16;79.18
79123;BME280;68526;44.600;26.032;2023-07-13T00:14:00;100361.75;;;23.16;78.95
79123;BME280;68526;44.600;26.032;2023-07-13T00:14:15;100360.16;;;23.15;79.12
79123;BME280;68526;44.600;26.032;2023-07-13T00:14:31;100367.34;;;23.16;78.88
79123;BME280;68526;44.600;26.032;2023-07-13T00:14:47;100359.75;;;23.17;78.84
79123;BME280;68526;44.600;26.032;2023-07-13T00:15:09;100361.75;;;23.16;78.85
79123;BME280;68526;44.600;26.032;2023-07-13T00:15:26;100356.94;;;23.17;79.11
79123;BME280;68526;44.600;26.032;2023-07-13T00:15:42;100362.97;;;23.15;78.85
79123;BME280;68526;44.600;26.032;2023-07-13T00:15:58;100354.19;;;23.10;78.89
79123;BME280;68526;44.600;26.032;2023-07-13T00:16:14;100356.56;;;23.15;78.89
79123;BME280;68526;44.600;26.032;2023-07-13T00:16:30;100357.38;;;23.15;78.49
79123;BME280;68526;44.600;26.032;2023-07-13T00:16:46;100354.56;;;23.15;78.76
79123;BME280;68526;44.600;26.032;2023-07-13T00:17:02;100359.38;;;23.15;78.88
79123;BME280;68526;44.600;26.032;2023-07-13T00:17:19;100353.78;;;23.15;79.08
79123;BME280;68526;44.600;26.032;2023-07-13T00:17:36;100361.38;;;23.14;78.96
79123;BME280;68526;44.600;26.032;2023-07-13T00:17:54;100358.16;;;23.12;79.02
79123;BME280;68526;44.600;26.032;2023-07-13T00:18:10;100357.38;;;23.12;78.77
79123;BME280;68526;44.600;26.032;2023-07-13T00:18:26;100359.78;;;23.10;78.80
79123;BME280;68526;44.600;26.032;2023-07-13T00:18:45;100356.19;;;23.09;78.96
79123;BME280;68526;44.600;26.032;2023-07-13T00:19:02;100352.19;;;23.10;78.70
79123;BME280;68526;44.600;26.032;2023-07-13T00:19:18;100354.19;;;23.10;78.66
79123;BME280;68526;44.600;26.032;2023-07-13T00:19:33;100357.38;;;23.12;78.95
79123;BME280;68526;44.600;26.032;2023-07-13T00:19:51;100355.78;;;23.11;78.98
79123;BME280;68526;44.600;26.032;2023-07-13T00:20:08;100359.38;;;23.11;79.02
79123;BME280;68526;44.600;26.032;2023-07-13T00:20:25;100356.56;;;23.11;79.13
79123;BME280;68526;44.600;26.032;2023-07-13T00:20:40;100355.38;;;23.12;79.57
79123;BME280;68526;44.600;26.032;2023-07-13T00:20:58;100350.97;;;23.11;79.33
79123;BME280;68526;44.600;26.032;2023-07-13T00:21:20;100345.00;;;23.13;79.18
79123;BME280;68526;44.600;26.032;2023-07-13T00:21:36;100351.41;;;23.13;78.75
79123;BME280;68526;44.600;26.032;2023-07-13T00:21:52;100350.19;;;23.14;79.22
79123;BME280;68526;44.600;26.032;2023-07-13T00:22:11;100351.41;;;23.13;79.25
79123;BME280;68526;44.600;26.032;2023-07-13T00:22:27;100346.19;;;23.12;79.56
79123;BME280;68526;44.600;26.032;2023-07-13T00:22:42;100347.00;;;23.12;79.62
79123;BME280;68526;44.600;26.032;2023-07-13T00:22:59;100346.19;;;23.12;79.35
79123;BME280;68526;44.600;26.032;2023-07-13T00:23:15;100349.00;;;23.12;79.54
79123;BME280;68526;44.600;26.032;2023-07-13T00:23:32;100349.00;;;23.12;79.48
79123;BME280;68526;44.600;26.032;2023-07-13T00:23:49;100345.41;;;23.11;79.52
79123;BME280;68526;44.600;26.032;2023-07-13T00:24:05;100346.19;;;23.12;79.58
79123;BME280;68526;44.600;26.032;2023-07-13T00:24:21;100345.41;;;23.11;79.39
79123;BME280;68526;44.600;26.032;2023-07-13T00:24:39;100351.41;;;23.13;79.57
79123;BME280;68526;44.600;26.032;2023-07-13T00:24:57;100352.56;;;23.12;79.43
79123;BME280;68526;44.600;26.032;2023-07-13T00:25:14;100351.41;;;23.13;79.30
79123;BME280;68526;44.600;26.032;2023-07-13T00:25:29;100356.97;;;23.13;79.28
79123;BME280;68526;44.600;26.032;2023-07-13T00:25:46;100351.41;;;23.13;79.26
79123;BME280;68526;44.600;26.032;2023-07-13T00:26:03;100345.41;;;23.11;79.66
79123;BME280;68526;44.600;26.032;2023-07-13T00:26:19;100350.97;;;23.11;79.52
79123;BME280;68526;44.600;26.032;2023-07-13T00:26:34;100351.78;;;23.12;79.47
79123;BME280;68526;44.600;26.032;2023-07-13T00:26:50;100350.59;;;23.13;79.27
79123;BME280;68526;44.600;26.032;2023-07-13T00:27:06;100347.81;;;23.13;79.36
79123;BME280;68526;44.600;26.032;2023-07-13T00:27:24;100354.19;;;23.13;79.04
79123;BME280;68526;44.600;26.032;2023-07-13T00:27:41;100348.59;;;23.13;79.33
79123;BME280;68526;44.600;26.032;2023-07-13T00:27:58;100350.59;;;23.13;79.30
79123;BME280;68526;44.600;26.032;2023-07-13T00:28:13;100351.78;;;23.12;79.64
79123;BME280;68526;44.600;26.032;2023-07-13T00:28:29;100347.81;;;23.13;79.57
79123;BME280;68526;44.600;26.032;2023-07-13T00:28:45;100355.38;;;23.12;79.61
79123;BME280;68526;44.600;26.032;2023-07-13T00:29:01;100354.19;;;23.13;79.69
79123;BME280;68526;44.600;26.032;2023-07-13T00:29:18;100347.81;;;23.13;79.55
79123;BME280;68526;44.600;26.032;2023-07-13T00:29:33;100345.81;;;23.13;79.72
79123;BME280;68526;44.600;26.032;2023-07-13T00:29:49;100343.00;;;23.13;79.65
79123;BME280;68526;44.600;26.032;2023-07-13T00:30:06;100341.00;;;23.14;79.65
79123;BME280;68526;44.600;26.032;2023-07-13T00:30:22;100343.81;;;23.14;79.55
79123;BME280;68526;44.600;26.032;2023-07-13T00:30:38;100343.81;;;23.14;79.45
79123;BME280;68526;44.600;26.032;2023-07-13T00:30:54;100343.00;;;23.13;79.48
79123;BME280;68526;44.600;26.032;2023-07-13T00:31:10;100344.59;;;23.14;79.41
79123;BME280;68526;44.600;26.032;2023-07-13T00:31:27;100342.59;;;23.15;79.09
79123;BME280;68526;44.600;26.032;2023-07-13T00:31:43;100346.19;;;23.15;79.28
79123;BME280;68526;44.600;26.032;2023-07-13T00:32:00;100345.41;;;23.15;79.43
79123;BME280;68526;44.600;26.032;2023-07-13T00:32:15;100346.19;;;23.15;79.39
79123;BME280;68526;44.600;26.032;2023-07-13T00:32:31;100344.19;;;23.16;79.36
79123;BME280;68526;44.600;26.032;2023-07-13T00:32:50;100340.59;;;23.15;79.13
79123;BME280;68526;44.600;26.032;2023-07-13T00:33:06;100343.81;;;23.14;79.64
79123;BME280;68526;44.600;26.032;2023-07-13T00:33:22;100335.44;;;23.14;79.47
79123;BME280;68526;44.600;26.032;2023-07-13T00:33:38;100341.41;;;23.12;79.73
79123;BME280;68526;44.600;26.032;2023-07-13T00:33:55;100343.00;;;23.13;79.68
79123;BME280;68526;44.600;26.032;2023-07-13T00:34:11;100332.63;;;23.14;79.73
79123;BME280;68526;44.600;26.032;2023-07-13T00:34:27;100341.81;;;23.14;79.54
79123;BME280;68526;44.600;26.032;2023-07-13T00:34:42;100336.63;;;23.13;79.66
79123;BME280;68526;44.600;26.032;2023-07-13T00:34:59;100337.44;;;23.13;79.69
79123;BME280;68526;44.600;26.032;2023-07-13T00:35:16;100337.00;;;23.11;79.52
79123;BME280;68526;44.600;26.032;2023-07-13T00:35:32;100330.22;;;23.12;79.86
79123;BME280;68526;44.600;26.032;2023-07-13T00:35:48;100341.00;;;23.14;79.63
79123;BME280;68526;44.600;26.032;2023-07-13T00:36:04;100341.81;;;23.14;79.86
79123;BME280;68526;44.600;26.032;2023-07-13T00:36:20;100333.00;;;23.12;80.00
79123;BME280;68526;44.600;26.032;2023-07-13T00:36:36;100335.00;;;23.12;79.89
79123;BME280;68526;44.600;26.032;2023-07-13T00:36:52;100331.03;;;23.13;79.90
79123;BME280;68526;44.600;26.032;2023-07-13T00:37:09;100333.00;;;23.12;79.70
79123;BME280;68526;44.600;26.032;2023-07-13T00:37:24;100331.03;;;23.13;79.67
79123;BME280;68526;44.600;26.032;2023-07-13T00:37:40;100339.44;;;23.13;79.65
79123;BME280;68526;44.600;26.032;2023-07-13T00:37:56;100337.44;;;23.13;79.77
79123;BME280;68526;44.600;26.032;2023-07-13T00:38:12;100333.84;;;23.13;79.76
79123;BME280;68526;44.600;26.032;2023-07-13T00:38:27;100329.44;;;23.12;79.95
79123;BME280;68526;44.600;26.032;2023-07-13T00:38:43;100328.25;;;23.13;80.08
79123;BME280;68526;44.600;26.032;2023-07-13T00:39:00;100327.44;;;23.12;80.22
79123;BME280;68526;44.600;26.032;2023-07-13T00:39:16;100333.00;;;23.12;80.01
79123;BME280;68526;44.600;26.032;2023-07-13T00:39:32;100332.22;;;23.12;80.07
79123;BME280;68526;44.600;26.032;2023-07-13T00:39:48;100332.22;;;23.12;80.32
79123;BME280;68526;44.600;26.032;2023-07-13T00:40:05;100328.63;;;23.11;80.14
79123;BME280;68526;44.600;26.032;2023-07-13T00:40:21;100326.25;;;23.13;80.20
79123;BME280;68526;44.600;26.032;2023-07-13T00:40:37;100326.63;;;23.12;80.36
79123;BME280;68526;44.600;26.032;2023-07-13T00:40:53;100328.25;;;23.13;80.32
79123;BME280;68526;44.600;26.032;2023-07-13T00:41:10;100338.59;;;23.12;80.13
79123;BME280;68526;44.600;26.032;2023-07-13T00:41:26;100327.03;;;23.14;80.16
79123;BME280;68526;44.600;26.032;2023-07-13T00:41:42;100326.25;;;23.13;80.12
79123;BME280;68526;44.600;26.032;2023-07-13T00:41:59;100324.25;;;23.14;80.04
79123;BME280;68526;44.600;26.032;2023-07-13T00:42:15;100324.25;;;23.14;79.67
79123;BME280;68526;44.600;26.032;2023-07-13T00:42:32;100318.66;;;23.14;79.90
79123;BME280;68526;44.600;26.032;2023-07-13T00:42:48;100320.66;;;23.13;79.89
79123;BME280;68526;44.600;26.032;2023-07-13T00:43:04;100326.25;;;23.13;79.86
79123;BME280;68526;44.600;26.032;2023-07-13T00:43:26;100328.25;;;23.13;79.54
79123;BME280;68526;44.600;26.032;2023-07-13T00:43:42;100327.44;;;23.12;79.61
79123;BME280;68526;44.600;26.032;2023-07-13T00:43:58;100325.47;;;23.13;79.29
79123;BME280;68526;44.600;26.032;2023-07-13T00:44:15;100315.91;;;23.03;79.53
79123;BME280;68526;44.600;26.032;2023-07-13T00:44:32;100324.63;;;23.12;79.46
79123;BME280;68526;44.600;26.032;2023-07-13T00:45:02;100325.84;;;23.11;79.63
79123;BME280;68526;44.600;26.032;2023-07-13T00:46:27;100324.25;;;23.10;79.60
79123;BME280;68526;44.600;26.032;2023-07-13T00:46:45;100328.25;;;23.09;79.83
79123;BME280;68526;44.600;26.032;2023-07-13T00:47:08;100317.88;;;23.06;79.97
79123;BME280;68526;44.600;26.032;2023-07-13T00:47:24;100326.25;;;23.06;80.00
79123;BME280;68526;44.600;26.032;2023-07-13T00:47:40;100314.28;;;23.06;79.87
79123;BME280;68526;44.600;26.032;2023-07-13T00:47:57;100325.06;;;23.07;80.11
79123;BME280;68526;44.600;26.032;2023-07-13T00:48:15;100323.88;;;23.08;80.10
79123;BME280;68526;44.600;26.032;2023-07-13T00:48:34;100313.13;;;23.03;80.34
79123;BME280;68526;44.600;26.032;2023-07-13T00:48:53;100320.69;;;23.03;80.40
79123;BME280;68526;44.600;26.032;2023-07-13T00:49:16;100325.09;;;23.04;80.04
79123;BME280;68526;44.600;26.032;2023-07-13T00:49:35;100327.88;;;23.04;80.42
79123;BME280;68526;44.600;26.032;2023-07-13T00:49:52;100320.69;;;23.03;80.60
79123;BME280;68526;44.600;26.032;2023-07-13T00:50:15;100323.13;;;23.01;80.54
79123;BME280;68526;44.600;26.032;2023-07-13T00:50:31;100317.53;;;23.01;80.52
79123;BME280;68526;44.600;26.032;2023-07-13T00:50:50;100316.72;;;23.00;80.54
79123;BME280;68526;44.600;26.032;2023-07-13T00:51:07;100324.28;;;23.00;80.39
79123;BME280;68526;44.600;26.032;2023-07-13T00:51:31;100325.09;;;23.00;80.32
79123;BME280;68526;44.600;26.032;2023-07-13T00:51:50;100323.13;;;23.01;80.41
79123;BME280;68526;44.600;26.032;2023-07-13T00:52:07;100323.13;;;23.01;80.41
79123;BME280;68526;44.600;26.032;2023-07-13T00:52:24;100323.91;;;23.01;80.37
79123;BME280;68526;44.600;26.032;2023-07-13T00:52:43;100325.91;;;23.01;80.50
79123;BME280;68526;44.600;26.032;2023-07-13T00:53:00;100318.72;;;23.00;80.60
79123;BME280;68526;44.600;26.032;2023-07-13T00:53:16;100325.09;;;23.00;80.49
79123;BME280;68526;44.600;26.032;2023-07-13T00:53:33;100326.28;;;22.99;80.81
79123;BME280;68526;44.600;26.032;2023-07-13T00:53:50;100325.50;;;22.99;80.63
79123;BME280;68526;44.600;26.032;2023-07-13T00:54:12;100323.13;;;22.97;80.87
79123;BME280;68526;44.600;26.032;2023-07-13T00:54:31;100327.13;;;22.96;80.87
79123;BME280;68526;44.600;26.032;2023-07-13T00:54:48;100326.69;;;22.98;80.62
79123;BME280;68526;44.600;26.032;2023-07-13T00:55:04;100321.13;;;22.98;80.53
79123;BME280;68526;44.600;26.032;2023-07-13T00:55:21;100324.69;;;22.98;80.37
79123;BME280;68526;44.600;26.032;2023-07-13T00:55:39;100325.91;;;22.97;80.43
79123;BME280;68526;44.600;26.032;2023-07-13T00:55:56;100324.69;;;22.98;80.41
79123;BME280;68526;44.600;26.032;2023-07-13T00:56:12;100324.69;;;22.98;80.43
79123;BME280;68526;44.600;26.032;2023-07-13T00:56:30;100322.69;;;22.99;80.13
79123;BME280;68526;44.600;26.032;2023-07-13T00:56:50;100322.69;;;22.99;80.40
79123;BME280;68526;44.600;26.032;2023-07-13T00:57:09;100333.09;;;22.98;80.45
79123;BME280;68526;44.600;26.032;2023-07-13T00:57:26;100325.91;;;22.97;80.42
79123;BME280;68526;44.600;26.032;2023-07-13T00:57:44;100325.50;;;22.99;80.43
79123;BME280;68526;44.600;26.032;2023-07-13T00:58:00;100327.50;;;22.98;80.48
79123;BME280;68526;44.600;26.032;2023-07-13T00:58:17;100327.50;;;22.98;80.66
79123;BME280;68526;44.600;26.032;2023-07-13T00:58:33;100329.13;;;22.96;80.75
79123;BME280;68526;44.600;26.032;2023-07-13T00:58:49;100325.13;;;22.97;80.45
79123;BME280;68526;44.600;26.032;2023-07-13T00:59:07;100326.31;;;22.96;80.88
79123;BME280;68526;44.600;26.032;2023-07-13T00:59:25;100332.69;;;22.96;80.79
79123;BME280;68526;44.600;26.032;2023-07-13T00:59:46;100325.13;;;22.93;80.85
79123;BME280;68526;44.600;26.032;2023-07-13T01:00:06;100328.31;;;22.95;80.56
79123;BME280;68526;44.600;26.032;2023-07-13T01:00:23;100327.50;;;22.95;80.60
79123;BME280;68526;44.600;26.032;2023-07-13T01:00:41;100331.13;;;22.95;80.43
79123;BME280;68526;44.600;26.032;2023-07-13T01:00:57;100338.28;;;22.96;80.53
79123;BME280;68526;44.600;26.032;2023-07-13T01:01:13;100336.69;;;22.95;80.71
79123;BME280;68526;44.600;26.032;2023-07-13T01:01:29;100331.91;;;22.92;80.80
79123;BME280;68526;44.600;26.032;2023-07-13T01:01:45;100341.09;;;22.92;80.76
79123;BME280;68526;44.600;26.032;2023-07-13T01:02:02;100339.09;;;22.93;80.82
79123;BME280;68526;44.600;26.032;2023-07-13T01:02:19;100334.69;;;22.92;81.11
79123;BME280;68526;44.600;26.032;2023-07-13T01:02:35;100335.50;;;22.92;80.89
79123;BME280;68526;44.600;26.032;2023-07-13T01:02:53;100337.09;;;22.93;80.77
79123;BME280;68526;44.600;26.032;2023-07-13T01:03:10;100332.69;;;22.92;81.06
79123;BME280;68526;44.600;26.032;2023-07-13T01:03:27;100334.69;;;22.92;81.03
79123;BME280;68526;44.600;26.032;2023-07-13T01:03:43;100338.28;;;22.92;81.03
79123;BME280;68526;44.600;26.032;2023-07-13T01:03:59;100334.28;;;22.93;80.67
79123;BME280;68526;44.600;26.032;2023-07-13T01:04:15;100333.91;;;22.91;80.85
79123;BME280;68526;44.600;26.032;2023-07-13T01:04:30;100342.66;;;22.93;80.97
79123;BME280;68526;44.600;26.032;2023-07-13T01:04:46;100341.88;;;22.93;80.94
79123;BME280;68526;44.600;26.032;2023-07-13T01:05:09;100339.88;;;22.93;80.95
79123;BME280;68526;44.600;26.032;2023-07-13T01:05:26;100339.09;;;22.93;81.00
79123;BME280;68526;44.600;26.032;2023-07-13T01:05:42;100339.88;;;22.93;80.92
79123;BME280;68526;44.600;26.032;2023-07-13T01:05:58;100339.09;;;22.93;81.05
79123;BME280;68526;44.600;26.032;2023-07-13T01:06:14;100343.09;;;22.92;81.20
79123;BME280;68526;44.600;26.032;2023-07-13T01:06:30;100343.88;;;22.92;81.37
79123;BME280;68526;44.600;26.032;2023-07-13T01:06:46;100349.47;;;22.92;80.94
79123;BME280;68526;44.600;26.032;2023-07-13T01:07:03;100348.25;;;22.93;81.01
79123;BME280;68526;44.600;26.032;2023-07-13T01:07:20;100343.47;;;22.94;80.82
79123;BME280;68526;44.600;26.032;2023-07-13T01:07:36;100342.28;;;22.95;81.18
79123;BME280;68526;44.600;26.032;2023-07-13T01:07:52;100347.06;;;22.95;81.24
79123;BME280;68526;44.600;26.032;2023-07-13T01:08:08;100338.66;;;22.95;81.06
79123;BME280;68526;44.600;26.032;2023-07-13T01:08:24;100347.88;;;22.95;81.02
79123;BME280;68526;44.600;26.032;2023-07-13T01:08:39;100346.66;;;22.96;80.94
79123;BME280;68526;44.600;26.032;2023-07-13T01:08:57;100348.66;;;22.96;81.07
79123;BME280;68526;44.600;26.032;2023-07-13T01:09:14;100347.88;;;22.95;81.17
79123;BME280;68526;44.600;26.032;2023-07-13T01:09:31;100347.88;;;22.95;81.39
79123;BME280;68526;44.600;26.032;2023-07-13T01:09:47;100340.66;;;22.94;81.01
79123;BME280;68526;44.600;26.032;2023-07-13T01:10:03;100344.25;;;22.95;81.11
79123;BME280;68526;44.600;26.032;2023-07-13T01:10:21;100341.47;;;22.95;81.24
79123;BME280;68526;44.600;26.032;2023-07-13T01:10:37;100337.09;;;22.93;81.20
79123;BME280;68526;44.600;26.032;2023-07-13T01:10:56;100351.06;;;22.93;81.59
79123;BME280;68526;44.600;26.032;2023-07-13T01:11:19;100339.09;;;22.93;81.48
79123;BME280;68526;44.600;26.032;2023-07-13T01:11:35;100340.66;;;22.94;81.67
79123;BME280;68526;44.600;26.032;2023-07-13T01:11:51;100340.66;;;22.94;81.28
79123;BME280;68526;44.600;26.032;2023-07-13T01:12:09;100337.88;;;22.94;80.96
79123;BME280;68526;44.600;26.032;2023-07-13T01:12:25;100336.69;;;22.95;80.98
79123;BME280;68526;44.600;26.032;2023-07-13T01:12:40;100347.88;;;22.95;81.10
79123;BME280;68526;44.600;26.032;2023-07-13T01:12:56;100340.66;;;22.94;81.11
79123;BME280;68526;44.600;26.032;2023-07-13T01:13:12;100339.88;;;22.93;81.00
79123;BME280;68526;44.600;26.032;2023-07-13T01:13:27;100340.28;;;22.92;81.54
79123;BME280;68526;44.600;26.032;2023-07-13T01:13:43;100338.28;;;22.92;81.21
79123;BME280;68526;44.600;26.032;2023-07-13T01:14:00;100337.50;;;22.92;81.27
79123;BME280;68526;44.600;26.032;2023-07-13T01:14:16;100345.47;;;22.93;81.31
79123;BME280;68526;44.600;26.032;2023-07-13T01:14:32;100342.66;;;22.93;81.13
79123;BME280;68526;44.600;26.032;2023-07-13T01:14:48;100341.88;;;22.93;80.82
79123;BME280;68526;44.600;26.032;2023-07-13T01:15:05;100341.47;;;22.95;80.80
79123;BME280;68526;44.600;26.032;2023-07-13T01:15:40;100335.88;;;22.95;80.98
79123;BME280;68526;44.600;26.032;2023-07-13T01:16:02;100343.47;;;22.94;81.10
79123;BME280;68526;44.600;26.032;2023-07-13T01:16:23;100342.66;;;22.93;81.00
79123;BME280;68526;44.600;26.032;2023-07-13T01:16:41;100339.88;;;22.93;81.39
79123;BME280;68526;44.600;26.032;2023-07-13T01:16:58;100342.28;;;22.91;81.36
79123;BME280;68526;44.600;26.032;2023-07-13T01:17:16;100341.50;;;22.91;81.59
79123;BME280;68526;44.600;26.032;2023-07-13T01:17:34;100337.91;;;22.90;81.50
79123;BME280;68526;44.600;26.032;2023-07-13T01:17:50;100339.09;;;22.93;81.31
79123;BME280;68526;44.600;26.032;2023-07-13T01:18:10;100339.09;;;22.93;81.33
79123;BME280;68526;44.600;26.032;2023-07-13T01:18:35;100341.88;;;22.93;81.32
79123;BME280;68526;44.600;26.032;2023-07-13T01:18:51;100339.09;;;22.93;81.30
79123;BME280;68526;44.600;26.032;2023-07-13T01:19:14;100341.09;;;22.92;81.21
79123;BME280;68526;44.600;26.032;2023-07-13T01:19:40;100340.28;;;22.92;81.13
79123;BME280;68526;44.600;26.032;2023-07-13T01:19:56;100338.69;;;22.91;81.29
79123;BME280;68526;44.600;26.032;2023-07-13T01:20:12;100335.91;;;22.91;81.38
79123;BME280;68526;44.600;26.032;2023-07-13T01:20:28;100341.50;;;22.91;81.17
79123;BME280;68526;44.600;26.032;2023-07-13T01:20:50;100340.69;;;22.90;81.31
79123;BME280;68526;44.600;26.032;2023-07-13T01:21:07;100338.69;;;22.91;81.01
79123;BME280;68526;44.600;26.032;2023-07-13T01:21:24;100341.50;;;22.91;81.24
79123;BME280;68526;44.600;26.032;2023-07-13T01:21:40;100339.91;;;22.90;81.16
79123;BME280;68526;44.600;26.032;2023-07-13T01:21:58;100340.69;;;22.90;80.91
79123;BME280;68526;44.600;26.032;2023-07-13T01:22:17;100339.13;;;22.89;81.28
79123;BME280;68526;44.600;26.032;2023-07-13T01:22:32;100337.13;;;22.90;81.00
79123;BME280;68526;44.600;26.032;2023-07-13T01:22:48;100337.91;;;22.90;81.25
79123;BME280;68526;44.600;26.032;2023-07-13T01:23:08;100339.91;;;22.90;81.07
79123;BME280;68526;44.600;26.032;2023-07-13T01:23:25;100337.13;;;22.90;81.26
79123;BME280;68526;44.600;26.032;2023-07-13T01:23:41;100341.91;;;22.89;80.93
79123;BME280;68526;44.600;26.032;2023-07-13T01:23:56;100339.13;;;22.89;81.02
79123;BME280;68526;44.600;26.032;2023-07-13T01:24:13;100339.13;;;22.89;81.32
79123;BME280;68526;44.600;26.032;2023-07-13T01:24:28;100342.28;;;22.88;81.36
79123;BME280;68526;44.600;26.032;2023-07-13T01:24:47;100341.13;;;22.89;81.48
79123;BME280;68526;44.600;26.032;2023-07-13T01:25:03;100340.69;;;22.87;81.49
79123;BME280;68526;44.600;26.032;2023-07-13T01:25:20;100339.88;;;22.86;81.45
79123;BME280;68526;44.600;26.032;2023-07-13T01:25:37;100335.13;;;22.87;81.45
79123;BME280;68526;44.600;26.032;2023-07-13T01:25:53;100336.28;;;22.86;81.69
79123;BME280;68526;44.600;26.032;2023-07-13T01:26:10;100346.28;;;22.87;81.22
79123;BME280;68526;44.600;26.032;2023-07-13T01:26:27;100340.69;;;22.87;81.20
79123;BME280;68526;44.600;26.032;2023-07-13T01:26:43;100348.25;;;22.86;81.13
79123;BME280;68526;44.600;26.032;2023-07-13T01:26:59;100335.13;;;22.87;80.85
79123;BME280;68526;44.600;26.032;2023-07-13T01:27:19;100336.28;;;22.86;80.57
79123;BME280;68526;44.600;26.032;2023-07-13T01:27:35;100337.50;;;22.85;80.73
79123;BME280;68526;44.600;26.032;2023-07-13T01:27:51;100339.50;;;22.84;80.84
79123;BME280;68526;44.600;26.032;2023-07-13T01:28:08;100336.69;;;22.84;80.83
79123;BME280;68526;44.600;26.032;2023-07-13T01:28:26;100338.28;;;22.85;80.97
79123;BME280;68526;44.600;26.032;2023-07-13T01:28:43;100340.28;;;22.85;80.60
79123;BME280;68526;44.600;26.032;2023-07-13T01:28:59;100338.69;;;22.84;80.84
79123;BME280;68526;44.600;26.032;2023-07-13T01:29:15;100340.69;;;22.83;80.57
79123;BME280;68526;44.600;26.032;2023-07-13T01:29:31;100335.91;;;22.84;80.88
79123;BME280;68526;44.600;26.032;2023-07-13T01:29:47;100337.13;;;22.83;81.18